Time;durP1;ratioP1;P1;durP2;ratioP2;P2;SDS_P1;SDS_P2;PMS_P1;PMS_P2;Temp;Humidity;BMP_temperature;BMP_pressure;BME280_temperature;BME280_humidity;BME280_pressure;Samples;Min_cycle;Max_cycle;Signal;HPM_P1;HPM_P2
2023/12/07 00:01:42;;;;;;;36.78;19.98;;;;;;;2.96;100.00;100826.69;5144206;28;20027;-75
2023/12/07 00:04:13;;;;;;;36.80;20.15;;;;;;;2.93;100.00;100826.69;5145171;28;20477;-76
2023/12/07 00:06:43;;;;;;;38.78;20.70;;;;;;;3.04;100.00;100830.16;5147981;28;20491;-76
2023/12/07 00:09:13;;;;;;;38.92;20.35;;;;;;;2.96;100.00;100831.84;5147920;28;20034;-75
2023/12/07 00:11:44;;;;;;;33.95;19.45;;;;;;;2.98;100.00;100833.59;5144016;28;20037;-76
2023/12/07 00:14:14;;;;;;;38.13;20.50;;;;;;;3.08;100.00;100829.28;5121426;28;20401;-75
2023/12/07 00:16:44;;;;;;;33.90;18.75;;;;;;;2.91;100.00;100833.59;5123244;28;20274;-72
2023/12/07 00:19:15;;;;;;;32.80;18.80;;;;;;;2.91;100.00;100839.63;5129051;28;20062;-76
2023/12/07 00:21:45;;;;;;;34.53;19.75;;;;;;;2.93;100.00;100832.75;5148367;28;20030;-76
2023/12/07 00:24:15;;;;;;;34.63;19.83;;;;;;;2.90;100.00;100829.28;5143807;28;20308;-75
2023/12/07 00:26:45;;;;;;;34.22;18.50;;;;;;;2.88;100.00;100839.59;5129816;28;20026;-76
2023/12/07 00:29:16;;;;;;;34.58;18.67;;;;;;;2.92;100.00;100836.19;5118065;28;20037;-72
2023/12/07 00:31:46;;;;;;;34.05;19.35;;;;;;;2.95;100.00;100843.03;5135739;28;20069;-76
2023/12/07 00:34:18;;;;;;;31.67;17.40;;;;;;;2.88;100.00;100849.94;5144438;28;20041;-76
2023/12/07 00:36:48;;;;;;;32.28;17.58;;;;;;;2.89;100.00;100849.06;5147409;28;20034;-75
2023/12/07 00:39:19;;;;;;;32.72;18.55;;;;;;;3.00;100.00;100843.91;5140688;28;20386;-76
2023/12/07 00:41:49;;;;;;;31.42;17.80;;;;;;;2.93;100.00;100852.50;5133851;28;20238;-75
2023/12/07 00:44:19;;;;;;;34.33;18.38;;;;;;;3.09;100.00;100851.63;5119761;28;20047;-72
2023/12/07 00:46:50;;;;;;;34.15;18.52;;;;;;;3.04;100.00;100855.97;5141226;28;20030;-75
2023/12/07 00:49:20;;;;;;;30.27;17.73;;;;;;;2.87;100.00;100868.84;5147530;28;20054;-75
2023/12/07 00:51:51;;;;;;;34.08;18.25;;;;;;;2.84;100.00;100868.00;5147341;28;20109;-75
2023/12/07 00:54:21;;;;;;;33.67;17.98;;;;;;;2.85;100.00;100867.16;5146751;28;20030;-74
2023/12/07 00:56:51;;;;;;;29.52;17.15;;;;;;;2.96;100.00;100868.88;5178683;22;20517;-72
2023/12/07 00:59:22;;;;;;;33.03;18.38;;;;;;;2.87;100.00;100874.00;5161043;28;20040;-72
2023/12/07 01:01:52;;;;;;;32.90;17.75;;;;;;;3.04;100.00;100874.03;5144619;28;20030;-73
2023/12/07 01:04:22;;;;;;;31.92;17.48;;;;;;;2.95;100.00;100874.00;5164837;28;20048;-74
2023/12/07 01:06:52;;;;;;;32.38;17.40;;;;;;;3.00;100.00;100886.06;5165307;28;20173;-74
2023/12/07 01:09:23;;;;;;;32.90;17.83;;;;;;;2.94;100.00;100887.78;5150642;28;20277;-73
2023/12/07 01:11:53;;;;;;;29.88;16.08;;;;;;;3.02;100.00;100892.09;5152630;28;20026;-74
2023/12/07 01:14:24;;;;;;;27.88;15.85;;;;;;;2.99;100.00;100893.81;5162122;28;20065;-74
2023/12/07 01:16:54;;;;;;;30.48;16.85;;;;;;;2.99;100.00;100891.25;5160451;28;20030;-75
2023/12/07 01:19:25;;;;;;;31.92;17.88;;;;;;;2.96;100.00;100893.81;5161216;28;20034;-73
2023/12/07 01:21:55;;;;;;;30.90;17.17;;;;;;;3.00;100.00;100900.72;5156761;28;20031;-74
2023/12/07 01:24:25;;;;;;;30.73;16.73;;;;;;;3.09;100.00;100898.09;5148063;28;20237;-73
2023/12/07 01:26:56;;;;;;;28.83;17.13;;;;;;;3.04;100.00;100905.84;5159329;28;20049;-73
2023/12/07 01:29:26;;;;;;;30.20;16.42;;;;;;;3.06;100.00;100903.28;5158086;28;20048;-74
2023/12/07 01:31:56;;;;;;;30.85;15.85;;;;;;;3.16;100.00;100913.59;5157212;28;20046;-73
2023/12/07 01:34:26;;;;;;;30.17;16.75;;;;;;;3.07;100.00;100912.75;5161868;28;20030;-73
2023/12/07 01:36:57;;;;;;;32.22;16.38;;;;;;;3.18;100.00;100916.19;5159275;28;20030;-72
2023/12/07 01:39:27;;;;;;;32.72;17.38;;;;;;;3.19;100.00;100916.16;5157374;28;20329;-75
2023/12/07 01:41:57;;;;;;;29.65;16.55;;;;;;;3.16;100.00;100918.75;5150814;28;20274;-74
2023/12/07 01:44:28;;;;;;;33.90;17.33;;;;;;;3.17;100.00;100919.63;5153820;28;20029;-74
2023/12/07 01:46:58;;;;;;;31.20;17.98;;;;;;;3.01;100.00;100925.66;5157860;28;20472;-74
2023/12/07 01:49:29;;;;;;;33.50;16.50;;;;;;;3.00;100.00;100921.34;5160638;28;20061;-74
2023/12/07 01:51:59;;;;;;;35.13;18.00;;;;;;;2.93;100.00;100925.66;5148724;28;20112;-73
2023/12/07 01:54:30;;;;;;;34.35;17.33;;;;;;;3.05;100.00;100927.38;5154922;28;20080;-73
2023/12/07 01:57:01;;;;;;;32.58;17.40;;;;;;;3.03;100.00;100932.53;5150569;28;20030;-75
2023/12/07 01:59:33;;;;;;;34.55;18.08;;;;;;;3.05;100.00;100935.13;5154582;28;20331;-73
2023/12/07 02:02:03;;;;;;;33.38;18.02;;;;;;;3.10;100.00;100933.38;5139194;28;20058;-76
2023/12/07 02:04:34;;;;;;;33.35;17.27;;;;;;;2.98;100.00;100941.13;5144594;28;20030;-73
2023/12/07 02:07:06;;;;;;;32.17;17.83;;;;;;;3.06;100.00;100942.00;5143285;28;20141;-73
2023/12/07 02:09:37;;;;;;;34.13;17.85;;;;;;;3.05;100.00;100935.13;5124822;28;20030;-74
2023/12/07 02:12:08;;;;;;;31.83;17.70;;;;;;;3.09;100.00;100937.72;5150839;28;20049;-73
2023/12/07 02:14:38;;;;;;;31.15;17.73;;;;;;;3.17;100.00;100930.81;5148054;28;20029;-76
2023/12/07 02:17:21;;;;;;;33.88;17.80;;;;;;;3.12;100.00;100936.81;5156603;28;20031;-73
2023/12/07 02:20:07;;;;;;;34.35;17.83;;;;;;;2.96;100.00;100940.25;5128876;28;20033;-73
2023/12/07 02:23:02;;;;;;;32.72;17.23;;;;;;;3.04;100.00;100938.56;5161139;28;20022;-73
2023/12/07 02:25:40;;;;;;;31.23;17.75;;;;;;;3.14;100.00;100945.44;5147524;28;20092;-73
2023/12/07 02:28:10;;;;;;;29.25;16.88;;;;;;;3.17;100.00;100943.72;5165225;28;20516;-74
2023/12/07 02:30:41;;;;;;;31.67;17.10;;;;;;;3.06;100.00;100949.75;5156550;28;20113;-75
2023/12/07 02:33:12;;;;;;;34.20;18.88;;;;;;;3.05;100.00;100942.88;5148011;28;20480;-74
2023/12/07 02:35:42;;;;;;;34.97;17.27;;;;;;;3.07;100.00;100943.72;5157052;28;20038;-73
2023/12/07 02:38:14;;;;;;;27.95;16.88;;;;;;;3.12;100.00;100942.00;5122020;28;20312;-73
2023/12/07 02:40:46;;;;;;;32.45;17.17;;;;;;;3.07;100.00;100943.72;5150794;28;20038;-75
2023/12/07 02:43:17;;;;;;;32.28;17.20;;;;;;;3.10;100.00;100947.16;5160192;28;20033;-73
2023/12/07 02:45:48;;;;;;;34.67;17.92;;;;;;;3.24;100.00;100950.63;5147101;28;20026;-75
2023/12/07 02:48:20;;;;;;;29.02;17.08;;;;;;;3.17;100.00;100950.63;5142990;28;20632;-74
2023/12/07 02:50:51;;;;;;;31.40;17.35;;;;;;;3.22;100.00;100948.88;5165327;28;20488;-75
2023/12/07 02:53:21;;;;;;;28.95;16.20;;;;;;;3.16;100.00;100948.91;5166567;28;20034;-74
2023/12/07 02:55:51;;;;;;;33.65;17.27;;;;;;;3.15;100.00;100952.31;5144524;28;21660;-73
2023/12/07 02:58:21;;;;;;;29.38;16.48;;;;;;;3.09;100.00;100948.03;5158818;28;20191;-73
2023/12/07 03:00:52;;;;;;;29.40;16.33;;;;;;;3.13;100.00;100951.44;5139669;28;20057;-73
2023/12/07 03:03:22;;;;;;;28.58;16.25;;;;;;;3.23;100.00;100955.78;5126328;28;20034;-73
2023/12/07 03:05:52;;;;;;;28.83;15.40;;;;;;;3.06;100.00;100958.34;5166443;28;20038;-74
2023/12/07 03:08:23;;;;;;;30.92;15.88;;;;;;;3.06;100.00;100960.91;5168515;28;20202;-74
2023/12/07 03:10:53;;;;;;;30.10;16.27;;;;;;;3.12;100.00;100962.63;5151502;28;20034;-73
2023/12/07 03:13:23;;;;;;;32.33;16.42;;;;;;;3.13;100.00;100970.41;5163091;28;20092;-73
2023/12/07 03:15:54;;;;;;;29.70;16.48;;;;;;;3.13;100.00;100972.09;5161820;28;20084;-75
2023/12/07 03:18:24;;;;;;;30.52;16.30;;;;;;;3.23;100.00;100968.69;5164416;28;20026;-73
2023/12/07 03:20:54;;;;;;;29.25;15.95;;;;;;;3.13;100.00;100970.41;5158749;28;20069;-75
2023/12/07 03:23:25;;;;;;;28.38;16.63;;;;;;;3.17;100.00;100966.09;5161608;28;20507;-72
2023/12/07 03:25:55;;;;;;;31.08;16.35;;;;;;;3.13;100.00;100969.53;5166384;28;20034;-74
2023/12/07 03:28:26;;;;;;;25.13;15.10;;;;;;;3.21;100.00;100970.41;5158147;28;20487;-73
2023/12/07 03:30:56;;;;;;;26.50;15.50;;;;;;;3.21;100.00;100975.56;5165711;28;20038;-74
2023/12/07 03:33:26;;;;;;;30.08;16.63;;;;;;;3.16;100.00;100972.97;5163118;28;20053;-74
2023/12/07 03:35:56;;;;;;;31.63;16.15;;;;;;;3.24;100.00;100975.56;5158983;28;20290;-73
2023/12/07 03:38:27;;;;;;;28.42;15.45;;;;;;;3.18;100.00;100978.16;5161845;28;20140;-75
2023/12/07 03:40:57;;;;;;;29.92;16.38;;;;;;;3.10;100.00;100978.16;5166318;28;20447;-73
2023/12/07 03:43:27;;;;;;;28.83;15.80;;;;;;;3.11;100.00;100987.63;5163003;28;20036;-74
2023/12/07 03:45:58;;;;;;;27.48;15.95;;;;;;;3.20;100.00;100981.59;5163352;28;20093;-73
2023/12/07 03:48:28;;;;;;;27.45;15.32;;;;;;;3.19;100.00;100974.72;5159257;28;20030;-74
2023/12/07 03:50:59;;;;;;;30.05;15.75;;;;;;;3.13;100.00;100985.91;5163285;28;20372;-73
2023/12/07 03:53:29;;;;;;;29.13;16.15;;;;;;;3.23;100.00;100986.75;5165764;28;20029;-73
2023/12/07 03:55:59;;;;;;;26.08;15.20;;;;;;;3.16;100.00;100987.63;5165209;28;20030;-72
2023/12/07 03:58:30;;;;;;;25.63;15.82;;;;;;;3.14;100.00;100986.72;5161151;28;20053;-73
2023/12/07 04:01:00;;;;;;;28.52;16.38;;;;;;;3.25;100.00;100985.03;5162188;28;20036;-72
2023/12/07 04:03:31;;;;;;;29.52;16.73;;;;;;;3.12;100.00;100989.34;5156921;28;20034;-74
2023/12/07 04:06:02;;;;;;;30.42;16.08;;;;;;;3.23;100.00;100991.91;5161851;28;20022;-73
2023/12/07 04:08:33;;;;;;;29.40;16.63;;;;;;;3.19;100.00;100995.38;5160786;28;20427;-73
2023/12/07 04:11:03;;;;;;;25.92;16.02;;;;;;;3.15;100.00;100989.34;5162277;28;20038;-74
2023/12/07 04:13:34;;;;;;;25.75;15.77;;;;;;;3.16;100.00;101003.13;5159275;28;20089;-74
2023/12/07 04:16:04;;;;;;;25.77;15.15;;;;;;;3.12;100.00;100994.50;5158726;28;20172;-74
2023/12/07 04:18:35;;;;;;;24.80;14.30;;;;;;;3.04;100.00;101001.34;5146417;28;20041;-73
2023/12/07 04:21:06;;;;;;;25.85;15.63;;;;;;;3.11;100.00;101007.38;5161981;28;20045;-73
2023/12/07 04:23:36;;;;;;;28.88;16.30;;;;;;;3.12;100.00;101009.13;5159156;28;20557;-73
2023/12/07 04:26:06;;;;;;;26.42;15.65;;;;;;;3.11;100.00;101000.53;5160028;28;20022;-73
2023/12/07 04:28:37;;;;;;;25.48;15.43;;;;;;;3.08;100.00;101015.13;5159170;28;20022;-73
2023/12/07 04:31:07;;;;;;;28.63;16.63;;;;;;;3.04;100.00;101005.69;5158404;28;20033;-75
2023/12/07 04:33:37;;;;;;;25.88;15.57;;;;;;;3.08;100.00;101010.84;5157082;28;20030;-74
2023/12/07 04:36:08;;;;;;;26.90;15.85;;;;;;;3.04;100.00;101021.16;5159943;28;20030;-73
2023/12/07 04:38:38;;;;;;;25.25;14.82;;;;;;;3.08;100.00;101015.13;5162734;28;20259;-74
2023/12/07 04:41:09;;;;;;;26.98;15.38;;;;;;;3.05;100.00;101012.56;5159340;28;20026;-73
2023/12/07 04:43:39;;;;;;;25.98;15.27;;;;;;;3.06;100.00;101024.59;5161827;28;20033;-75
2023/12/07 04:46:10;;;;;;;27.45;15.55;;;;;;;3.04;100.00;101021.16;5146942;28;20123;-73
2023/12/07 04:48:40;;;;;;;30.42;16.02;;;;;;;3.07;100.00;101021.16;5147872;28;20497;-74
2023/12/07 04:51:11;;;;;;;24.88;14.65;;;;;;;3.07;100.00;101031.50;5157364;28;20034;-75
2023/12/07 04:53:41;;;;;;;27.63;16.30;;;;;;;3.05;100.00;101020.31;5146396;28;20109;-72
2023/12/07 04:56:11;;;;;;;27.50;16.00;;;;;;;3.02;100.00;101028.88;5172539;28;20034;-75
2023/12/07 04:58:42;;;;;;;27.38;15.15;;;;;;;3.10;100.00;101034.94;5151071;28;20027;-73
2023/12/07 05:01:12;;;;;;;25.13;14.77;;;;;;;3.10;100.00;101034.06;5157697;28;20209;-73
2023/12/07 05:03:42;;;;;;;28.95;15.40;;;;;;;3.08;100.00;101031.50;5158755;28;20030;-73
2023/12/07 05:06:13;;;;;;;26.77;15.82;;;;;;;3.07;100.00;101032.38;5157547;28;20571;-73
2023/12/07 05:08:43;;;;;;;27.88;14.95;;;;;;;3.07;100.00;101031.50;5157570;28;20079;-73
2023/12/07 05:11:14;;;;;;;24.83;15.02;;;;;;;3.12;100.00;101025.47;5156048;28;20023;-73
2023/12/07 05:13:44;;;;;;;26.02;15.10;;;;;;;3.04;100.00;101024.59;5161781;28;20834;-74
2023/12/07 05:16:15;;;;;;;27.33;15.98;;;;;;;3.07;100.00;101026.31;5161642;28;20570;-73
2023/12/07 05:18:45;;;;;;;27.83;16.27;;;;;;;3.09;100.00;101024.59;5157161;28;20038;-74
2023/12/07 05:21:15;;;;;;;26.08;15.15;;;;;;;3.10;100.00;101023.75;5159351;28;20271;-73
2023/12/07 05:23:46;;;;;;;26.45;15.25;;;;;;;3.07;100.00;101026.31;5165959;28;20512;-75
2023/12/07 05:26:16;;;;;;;30.95;16.55;;;;;;;3.03;100.00;101028.03;5160430;28;20025;-74
2023/12/07 05:28:46;;;;;;;29.23;16.20;;;;;;;3.04;100.00;101036.66;5159574;28;20029;-73
2023/12/07 05:31:17;;;;;;;27.80;15.98;;;;;;;3.01;100.00;101026.31;5159408;28;20084;-73
2023/12/07 05:33:47;;;;;;;28.85;16.48;;;;;;;3.06;100.00;101037.50;5156938;28;20026;-74
2023/12/07 05:36:17;;;;;;;28.08;15.93;;;;;;;3.07;100.00;101032.38;5161449;28;20025;-74
2023/12/07 05:38:48;;;;;;;26.95;15.20;;;;;;;3.16;100.00;101039.25;5161685;28;20030;-74
2023/12/07 05:41:18;;;;;;;29.25;16.27;;;;;;;3.10;100.00;101026.31;5159862;28;20463;-75
2023/12/07 05:43:48;;;;;;;24.30;13.60;;;;;;;3.06;100.00;101033.19;5157474;28;20030;-73
2023/12/07 05:46:19;;;;;;;26.20;15.07;;;;;;;3.04;100.00;101031.50;5162472;28;20559;-72
2023/12/07 05:48:49;;;;;;;26.05;15.13;;;;;;;3.03;100.00;101035.78;5160021;28;20023;-73
2023/12/07 05:51:20;;;;;;;26.13;15.27;;;;;;;2.97;100.00;101029.72;5160888;28;20050;-73
2023/12/07 05:53:50;;;;;;;23.30;13.73;;;;;;;3.01;100.00;101027.16;5156127;28;20030;-75
2023/12/07 05:56:21;;;;;;;26.77;14.68;;;;;;;3.00;100.00;101024.59;5147396;28;20034;-74
2023/12/07 05:58:51;;;;;;;29.80;15.68;;;;;;;2.99;100.00;101025.47;5160527;28;20459;-74
2023/12/07 06:01:21;;;;;;;26.67;15.60;;;;;;;2.99;100.00;101021.16;5162398;28;20025;-75
2023/12/07 06:03:52;;;;;;;22.23;12.88;;;;;;;3.00;100.00;101025.44;5146573;28;20113;-74
2023/12/07 06:06:22;;;;;;;28.20;15.02;;;;;;;3.00;100.00;101027.19;5158595;28;20030;-73
2023/12/07 06:08:53;;;;;;;29.52;15.50;;;;;;;2.99;100.00;101026.31;5155379;28;20408;-74
2023/12/07 06:11:24;;;;;;;29.23;14.50;;;;;;;3.11;100.00;101030.63;5158032;28;20030;-73
2023/12/07 06:13:54;;;;;;;26.02;14.70;;;;;;;3.07;100.00;101031.50;5143335;28;20033;-74
2023/12/07 06:16:26;;;;;;;26.60;14.88;;;;;;;3.05;100.00;101040.97;5156696;28;20030;-73
2023/12/07 06:18:56;;;;;;;27.00;15.00;;;;;;;3.01;100.00;101034.06;5132058;28;20168;-74
2023/12/07 06:21:29;;;;;;;27.40;15.70;;;;;;;3.02;100.00;101034.06;5148734;28;20066;-73
2023/12/07 06:23:59;;;;;;;24.42;14.55;;;;;;;3.01;100.00;101032.34;5138046;28;20037;-72
2023/12/07 06:26:30;;;;;;;27.20;14.10;;;;;;;3.00;100.00;101040.09;5122067;28;20189;-73
2023/12/07 06:29:00;;;;;;;26.10;14.57;;;;;;;3.00;100.00;101034.94;5147029;28;20084;-73
2023/12/07 06:31:30;;;;;;;24.83;14.93;;;;;;;2.96;100.00;101039.22;5142279;28;20385;-71
2023/12/07 06:34:02;;;;;;;22.33;13.70;;;;;;;2.97;100.00;101042.66;5147715;28;20039;-72
2023/12/07 06:36:33;;;;;;;25.80;14.90;;;;;;;2.89;100.00;101042.63;5140402;28;20295;-74
2023/12/07 06:39:03;;;;;;;26.98;14.18;;;;;;;2.89;100.00;101063.28;5148673;28;20037;-74
2023/12/07 06:41:33;;;;;;;27.95;14.95;;;;;;;2.90;100.00;101064.16;5158467;28;20076;-74
2023/12/07 06:44:04;;;;;;;27.23;15.00;;;;;;;2.89;100.00;101065.84;5160587;28;20496;-74
2023/12/07 06:46:34;;;;;;;24.70;13.45;;;;;;;2.88;100.00;101065.88;5165457;28;20510;-75
2023/12/07 06:49:05;;;;;;;26.80;14.50;;;;;;;2.86;100.00;101067.59;5162441;28;20058;-74
2023/12/07 06:51:35;;;;;;;25.30;14.55;;;;;;;2.82;100.00;101071.00;5159533;28;20385;-74
2023/12/07 06:54:05;;;;;;;26.27;14.30;;;;;;;2.82;100.00;101074.44;5161412;28;20034;-74
2023/12/07 06:56:35;;;;;;;27.77;13.95;;;;;;;2.76;100.00;101074.44;5182974;22;20138;-75
2023/12/07 06:59:06;;;;;;;23.27;13.80;;;;;;;2.75;100.00;101077.88;5158796;28;20039;-74
2023/12/07 07:01:37;;;;;;;27.58;14.10;;;;;;;2.72;100.00;101079.56;5157121;28;20481;-75
2023/12/07 07:04:08;;;;;;;25.65;14.30;;;;;;;2.73;100.00;101073.53;5161213;28;20023;-74
2023/12/07 07:06:41;;;;;;;27.17;14.30;;;;;;;2.70;100.00;101073.53;5162245;28;20607;-75
2023/12/07 07:09:12;;;;;;;26.25;14.23;;;;;;;2.74;100.00;101085.59;5163048;28;20542;-75
2023/12/07 07:11:47;;;;;;;26.48;14.30;;;;;;;2.74;100.00;101088.16;5159515;28;20022;-75
2023/12/07 07:14:18;;;;;;;26.75;13.63;;;;;;;2.67;100.00;101096.75;5157918;28;20026;-75
2023/12/07 07:16:48;;;;;;;23.83;13.68;;;;;;;2.68;100.00;101096.75;5161955;28;20400;-74
2023/12/07 07:19:18;;;;;;;24.55;13.70;;;;;;;2.69;100.00;101098.47;5160373;28;20026;-75
2023/12/07 07:21:49;;;;;;;25.88;13.43;;;;;;;2.71;100.00;101091.59;5157938;28;20026;-73
2023/12/07 07:24:19;;;;;;;21.95;12.73;;;;;;;2.72;100.00;101089.88;5161798;28;20400;-75
2023/12/07 07:26:49;;;;;;;26.35;14.13;;;;;;;2.76;100.00;101096.78;5160658;28;20041;-75
2023/12/07 07:29:20;;;;;;;23.60;13.63;;;;;;;2.78;100.00;101097.63;5162670;28;20037;-75
2023/12/07 07:31:50;;;;;;;23.15;13.60;;;;;;;2.78;100.00;101100.22;5158985;28;20117;-74
2023/12/07 07:34:20;;;;;;;22.42;13.27;;;;;;;2.81;100.00;101098.53;5162284;28;20045;-75
2023/12/07 07:36:51;;;;;;;24.63;13.73;;;;;;;2.81;100.00;101100.22;5160613;28;20038;-75
2023/12/07 07:39:21;;;;;;;27.05;14.13;;;;;;;2.82;100.00;101097.66;5156385;28;20462;-76
2023/12/07 07:41:51;;;;;;;26.27;14.18;;;;;;;2.82;100.00;101100.25;5158808;28;20471;-74
2023/12/07 07:44:21;;;;;;;22.40;13.32;;;;;;;2.82;100.00;101107.16;5164989;28;20030;-75
2023/12/07 07:46:52;;;;;;;26.08;14.32;;;;;;;2.78;100.00;101110.53;5153016;28;20475;-75
2023/12/07 07:49:22;;;;;;;26.83;14.18;;;;;;;2.80;100.00;101101.97;5162581;28;20033;-75
2023/12/07 07:51:52;;;;;;;24.05;13.35;;;;;;;2.76;100.00;101097.66;5161371;28;20065;-75
2023/12/07 07:54:23;;;;;;;25.13;13.65;;;;;;;2.80;100.00;101098.50;5166350;28;20079;-75
2023/12/07 07:56:53;;;;;;;27.00;13.98;;;;;;;2.84;100.00;101100.28;5156761;28;20034;-76
2023/12/07 07:59:23;;;;;;;25.80;14.05;;;;;;;2.80;100.00;101104.53;5154206;28;20033;-71
2023/12/07 08:01:54;;;;;;;24.77;13.63;;;;;;;2.84;100.00;101108.84;5153637;28;20038;-75
2023/12/07 08:04:24;;;;;;;26.52;13.98;;;;;;;2.81;100.00;101105.38;5162690;28;20026;-71
2023/12/07 08:06:54;;;;;;;21.10;12.80;;;;;;;2.89;100.00;101114.03;5159007;28;20576;-74
2023/12/07 08:09:25;;;;;;;23.55;12.95;;;;;;;2.92;100.00;101114.94;5160402;28;20030;-72
2023/12/07 08:11:56;;;;;;;20.85;12.50;;;;;;;2.82;100.00;101120.03;5159626;28;20038;-75
2023/12/07 08:14:27;;;;;;;22.23;12.73;;;;;;;2.88;100.00;101115.75;5162976;28;20060;-75
2023/12/07 08:16:57;;;;;;;19.83;11.93;;;;;;;2.82;100.00;101118.31;5163179;28;20098;-75
2023/12/07 08:19:28;;;;;;;21.38;12.68;;;;;;;2.84;100.00;101124.34;5159806;28;20036;-75
2023/12/07 08:21:58;;;;;;;20.98;12.55;;;;;;;2.86;100.00;101129.53;5162749;28;20304;-75
2023/12/07 08:24:28;;;;;;;22.48;12.70;;;;;;;2.92;100.00;101119.22;5165822;28;20041;-75
2023/12/07 08:26:59;;;;;;;23.08;12.77;;;;;;;2.96;100.00;101126.09;5162217;28;20030;-75
2023/12/07 08:29:29;;;;;;;23.52;12.88;;;;;;;2.94;100.00;101132.97;5160108;28;20026;-75
2023/12/07 08:32:00;;;;;;;20.63;12.45;;;;;;;2.95;100.00;101129.53;5159893;28;20057;-75
2023/12/07 08:34:30;;;;;;;22.77;12.45;;;;;;;3.02;100.00;101127.00;5158766;28;20034;-75
2023/12/07 08:37:00;;;;;;;24.92;13.27;;;;;;;3.00;100.00;101125.28;5161087;28;20042;-76
2023/12/07 08:39:30;;;;;;;21.38;12.18;;;;;;;2.95;100.00;101138.16;5160349;28;20096;-75
2023/12/07 08:42:01;;;;;;;22.30;12.45;;;;;;;2.93;100.00;101133.84;5158268;28;20033;-75
2023/12/07 08:44:31;;;;;;;25.60;12.35;;;;;;;2.98;100.00;101139.88;5160777;28;20516;-75
2023/12/07 08:47:02;;;;;;;20.70;11.93;;;;;;;3.03;100.00;101141.63;5163861;28;20034;-75
2023/12/07 08:49:32;;;;;;;24.58;13.10;;;;;;;2.98;100.00;101140.75;5156854;28;20034;-75
2023/12/07 08:52:03;;;;;;;27.45;12.80;;;;;;;3.01;100.00;101134.75;5155104;28;20088;-73
2023/12/07 08:54:33;;;;;;;22.02;12.50;;;;;;;3.04;100.00;101143.34;5161003;28;20045;-76
2023/12/07 08:57:04;;;;;;;24.98;13.25;;;;;;;3.19;100.00;101143.41;5154512;28;20037;-74
2023/12/07 08:59:34;;;;;;;23.27;12.85;;;;;;;3.20;100.00;101147.69;5158439;28;20412;-75
2023/12/07 09:02:04;;;;;;;30.50;12.93;;;;;;;3.17;100.00;101147.69;5155951;28;20029;-75
2023/12/07 09:04:35;;;;;;;25.10;13.55;;;;;;;3.20;100.00;101144.28;5155596;28;20116;-76
2023/12/07 09:07:05;;;;;;;26.25;13.38;;;;;;;3.35;100.00;101137.41;5159874;28;20022;-75
2023/12/07 09:09:36;;;;;;;24.90;13.25;;;;;;;3.31;100.00;101143.44;5159250;28;20030;-75
2023/12/07 09:12:06;;;;;;;22.73;12.95;;;;;;;3.39;100.00;101146.88;5159923;28;20072;-75
2023/12/07 09:14:36;;;;;;;23.48;13.35;;;;;;;3.40;100.00;101148.59;5155875;28;20104;-75
2023/12/07 09:17:07;;;;;;;26.35;12.98;;;;;;;3.41;100.00;101146.91;5160005;28;20509;-75
2023/12/07 09:19:37;;;;;;;24.92;13.00;;;;;;;3.46;100.00;101156.41;5158378;28;20030;-72
2023/12/07 09:22:07;;;;;;;27.20;13.60;;;;;;;3.49;100.00;101143.47;5159417;28;20599;-75
2023/12/07 09:24:38;;;;;;;26.25;13.60;;;;;;;3.54;100.00;101143.50;5160207;28;20026;-74
2023/12/07 09:27:10;;;;;;;24.05;13.60;;;;;;;3.57;100.00;101154.69;5160656;28;20030;-75
2023/12/07 09:29:40;;;;;;;28.08;13.98;;;;;;;3.66;100.00;101145.25;5157453;28;20334;-74
2023/12/07 09:32:11;;;;;;;24.63;13.52;;;;;;;3.66;100.00;101145.25;5160400;28;20030;-76
2023/12/07 09:34:41;;;;;;;29.02;14.75;;;;;;;3.66;100.00;101154.69;5159992;28;20219;-73
2023/12/07 09:37:12;;;;;;;26.48;14.60;;;;;;;3.79;100.00;101154.72;5160864;28;20030;-76
2023/12/07 09:39:42;;;;;;;25.73;14.18;;;;;;;3.88;100.00;101153.84;5153070;28;20037;-75
2023/12/07 09:42:13;;;;;;;30.77;14.60;;;;;;;3.75;100.00;101155.56;5154029;28;20030;-75
2023/12/07 09:44:43;;;;;;;24.02;13.38;;;;;;;3.80;100.00;101153.00;5153818;28;20317;-75
2023/12/07 09:47:13;;;;;;;24.48;13.18;;;;;;;3.90;100.00;101149.53;5158985;28;20134;-75
2023/12/07 09:49:44;;;;;;;25.40;13.65;;;;;;;3.87;100.00;101150.44;5145584;28;20044;-75
2023/12/07 09:52:15;;;;;;;24.10;14.27;;;;;;;3.88;100.00;101154.72;5158383;28;20026;-75
2023/12/07 09:54:46;;;;;;;23.60;13.13;;;;;;;3.92;100.00;101147.84;5154138;28;20046;-74
2023/12/07 09:57:17;;;;;;;28.88;14.88;;;;;;;3.92;100.00;101159.03;5161050;28;20503;-76
2023/12/07 09:59:47;;;;;;;25.90;14.73;;;;;;;3.99;100.00;101152.16;5158220;28;20034;-76
2023/12/07 10:02:17;;;;;;;24.40;13.77;;;;;;;3.97;100.00;101146.97;5153235;28;20436;-75
2023/12/07 10:04:49;;;;;;;26.38;14.27;;;;;;;4.07;100.00;101142.66;5156682;28;20093;-72
2023/12/07 10:07:33;;;;;;;21.90;13.40;;;;;;;4.06;100.00;101148.69;5158075;28;20040;-75
2023/12/07 10:10:04;;;;;;;24.42;12.90;;;;;;;4.24;100.00;101148.66;5155985;28;20030;-72
2023/12/07 10:12:35;;;;;;;27.88;14.52;;;;;;;4.25;100.00;101146.09;5157479;28;20023;-75
2023/12/07 10:15:13;;;;;;;23.80;13.43;;;;;;;4.16;100.00;101143.50;5160147;28;20553;-75
2023/12/07 10:17:48;;;;;;;23.65;13.15;;;;;;;4.15;100.00;101141.78;5159395;28;20827;-74
2023/12/07 10:20:23;;;;;;;23.88;13.50;;;;;;;4.14;100.00;101147.81;5161272;28;20095;-75
2023/12/07 10:23:04;;;;;;;25.15;13.23;;;;;;;4.17;100.00;101139.22;5161079;28;20042;-75
2023/12/07 10:25:37;;;;;;;27.73;14.13;;;;;;;4.20;100.00;101137.50;5159147;28;20504;-75
2023/12/07 10:28:10;;;;;;;22.77;13.23;;;;;;;4.27;100.00;101131.44;5146529;28;20476;-75
2023/12/07 10:30:41;;;;;;;28.65;12.73;;;;;;;4.25;100.00;101133.16;5159109;28;20022;-76
2023/12/07 10:33:13;;;;;;;22.50;13.18;;;;;;;4.22;100.00;101125.41;5162385;28;20030;-75
2023/12/07 10:35:43;;;;;;;22.10;13.02;;;;;;;4.28;100.00;101127.13;5170331;28;20029;-75
2023/12/07 10:38:14;;;;;;;23.50;12.65;;;;;;;4.18;100.00;101128.88;5156511;28;20088;-75
2023/12/07 10:40:46;;;;;;;23.90;12.82;;;;;;;4.18;100.00;101125.41;5153628;28;20419;-72
2023/12/07 10:43:19;;;;;;;23.25;13.40;;;;;;;4.27;100.00;101121.09;5158954;28;20133;-75
2023/12/07 10:45:50;;;;;;;25.98;12.70;;;;;;;4.12;100.00;101123.69;5142781;28;20105;-75
2023/12/07 10:48:20;;;;;;;28.77;14.27;;;;;;;4.10;100.00;101125.41;5159767;28;20116;-76
2023/12/07 10:50:55;;;;;;;23.33;13.10;;;;;;;4.17;100.00;101124.56;5156941;28;20073;-75
2023/12/07 10:53:33;;;;;;;28.98;14.57;;;;;;;4.11;100.00;101124.56;5157977;28;20109;-74
2023/12/07 10:56:05;;;;;;;24.85;13.10;;;;;;;4.23;100.00;101124.53;5158955;28;20073;-75
2023/12/07 10:58:35;;;;;;;28.05;13.98;;;;;;;4.23;100.00;101119.38;5156179;28;20022;-76
2023/12/07 11:01:08;;;;;;;23.10;12.65;;;;;;;4.35;100.00;101119.38;5159536;28;20032;-74
2023/12/07 11:03:40;;;;;;;24.05;12.00;;;;;;;4.40;100.00;101124.50;5149780;28;20033;-75
2023/12/07 11:06:11;;;;;;;23.67;13.27;;;;;;;4.42;100.00;101126.22;5158059;28;20031;-76
2023/12/07 11:08:48;;;;;;;25.85;12.93;;;;;;;4.42;100.00;101120.19;5148032;28;20049;-76
2023/12/07 11:11:31;;;;;;;25.33;12.80;;;;;;;4.47;100.00;101108.97;5156141;28;20072;-75
2023/12/07 11:14:12;;;;;;;25.10;12.38;;;;;;;4.45;100.00;101110.69;5158948;28;20030;-75
2023/12/07 11:16:45;;;;;;;23.95;12.88;;;;;;;4.43;100.00;101112.44;5152382;28;20022;-76
2023/12/07 11:19:36;;;;;;;23.88;11.55;;;;;;;4.48;100.00;101113.28;5163504;28;20129;-75
2023/12/07 11:22:08;;;;;;;23.55;12.27;;;;;;;4.54;100.00;101110.69;5155813;28;20030;-74
2023/12/07 11:24:57;;;;;;;22.50;12.18;;;;;;;4.53;100.00;101108.97;5162634;28;20141;-75
2023/12/07 11:27:32;;;;;;;21.58;11.82;;;;;;;4.49;100.00;101112.41;5161671;28;20052;-75